createdAt,value
2019-01-14T00:03:56.444Z,96783.17
2019-01-14T00:06:26.291Z,96779.41
2019-01-14T00:09:35.099Z,96785.39
2019-01-14T00:15:16.505Z,96780.93
2019-01-14T00:17:46.592Z,96781.53
2019-01-14T00:20:55.821Z,96787.27
2019-01-14T00:26:34.182Z,96777.89
2019-01-14T00:29:04.691Z,96784.91
2019-01-14T00:32:13.538Z,96788.66
2019-01-14T00:37:42.747Z,96788.45
2019-01-14T00:43:28.577Z,96783.28
2019-01-14T00:49:07.163Z,96782.36
2019-01-14T00:55:02.147Z,96780.70
2019-01-14T01:00:46.869Z,96788.44
2019-01-14T01:03:56.044Z,96787.03
2019-01-14T01:09:22.643Z,96779.05
2019-01-14T01:12:31.391Z,96774.48
2019-01-14T01:15:00.883Z,96769.69
2019-01-14T01:17:30.954Z,96769.45
2019-01-14T01:20:00.428Z,96773.80
2019-01-14T01:22:30.013Z,96767.92
2019-01-14T01:25:38.738Z,96772.60
2019-01-14T01:28:48.732Z,96765.70
2019-01-14T01:31:18.567Z,96762.65
2019-01-14T01:33:47.965Z,96766.05
2019-01-14T01:36:56.932Z,96772.37
2019-01-14T01:40:05.683Z,96770.40
2019-01-14T01:43:15.007Z,96768.86
2019-01-14T01:54:36.254Z,96767.47
2019-01-14T01:57:45.049Z,96769.56
2019-01-14T02:09:21.718Z,96769.18
2019-01-14T02:12:30.683Z,96766.95
2019-01-14T02:15:39.846Z,96759.91
2019-01-14T02:18:09.644Z,96751.59
2019-01-14T02:20:58.625Z,96756.27
2019-01-14T02:29:35.294Z,96755.56
2019-01-14T02:32:45.486Z,96753.08
2019-01-14T02:35:54.395Z,96761.73
2019-01-14T02:41:18.993Z,96754.09
2019-01-14T02:46:58.631Z,96748.55
2019-01-14T02:49:28.867Z,96745.59
2019-01-14T02:52:39.724Z,96745.56
2019-01-14T02:58:11.749Z,96752.08
2019-01-14T03:00:41.236Z,96748.91
2019-01-14T03:06:06.830Z,96752.45
2019-01-14T03:11:50.467Z,96735.89
2019-01-14T03:14:39.295Z,96759.34
2019-01-14T03:17:09.223Z,96759.34
2019-01-14T03:19:38.634Z,96750.44
2019-01-14T03:22:48.357Z,96750.89
2019-01-14T03:28:27.689Z,96749.41
2019-01-14T03:30:57.253Z,96749.41
2019-01-14T03:34:06.222Z,96753.88
2019-01-14T03:39:37.887Z,96760.82
2019-01-14T03:42:46.736Z,96763.98
2019-01-14T03:45:56.038Z,96766.63
2019-01-14T03:51:50.694Z,96772.56
2019-01-14T03:57:15.429Z,96778.36
2019-01-14T04:00:24.336Z,96778.45
2019-01-14T04:02:54.462Z,96778.98
2019-01-14T04:08:38.937Z,96791.13
2019-01-14T04:11:47.801Z,96793.42
2019-01-14T04:14:17.742Z,96786.45
2019-01-14T04:19:56.362Z,96800.08
2019-01-14T04:22:25.817Z,96814.39
2019-01-14T04:24:55.659Z,96820.78
2019-01-14T04:27:25.095Z,96822.84
2019-01-14T04:29:55.311Z,96821.89
2019-01-14T04:32:25.426Z,96813.83
2019-01-14T04:35:34.218Z,96814.77
2019-01-14T04:41:05.359Z,96832.88
2019-01-14T04:44:13.991Z,96846.94
2019-01-14T04:46:43.491Z,96848.56
2019-01-14T04:49:12.966Z,96845.73
2019-01-14T04:52:21.869Z,96851.72
2019-01-14T04:57:31.167Z,96860.23
2019-01-14T05:00:00.666Z,96853.67
2019-01-14T05:06:04.988Z,96867.70
2019-01-14T05:08:34.346Z,96872.59
2019-01-14T05:11:43.434Z,96874.44
2019-01-14T05:17:33.976Z,96881.44
2019-01-14T05:20:15.376Z,96881.44
2019-01-14T05:22:56.534Z,96883.53
2019-01-14T05:31:29.854Z,96880.22
2019-01-14T05:33:59.902Z,96889.90
2019-01-14T05:36:49.057Z,96904.77
2019-01-14T05:42:20.716Z,96902.39
2019-01-14T05:44:50.576Z,96900.52
2019-01-14T05:47:58.272Z,96921.31
2019-01-14T05:50:28.479Z,96921.31
2019-01-14T05:52:57.970Z,96924.92
2019-01-14T05:55:39.942Z,96933.23
2019-01-14T05:58:21.472Z,96937.66
2019-01-14T06:01:30.892Z,96951.81
2019-01-14T06:04:19.540Z,96965.02
2019-01-14T06:07:28.954Z,96965.02
2019-01-14T06:13:13.866Z,96968.65
2019-01-14T06:16:22.868Z,96966.31
2019-01-14T06:19:03.639Z,96993.11
2019-01-14T06:28:06.633Z,97008.91
2019-01-14T06:33:51.919Z,97020.40
2019-01-14T06:36:21.747Z,97031.62
2019-01-14T06:38:51.664Z,97031.62
2019-01-14T06:42:01.138Z,97052.17
2019-01-14T06:44:52.089Z,97059.11
2019-01-14T06:47:21.988Z,97059.11
2019-01-14T06:49:52.924Z,97054.52
2019-01-14T06:53:01.778Z,97060.50
2019-01-14T06:58:33.250Z,97065.05
2019-01-14T07:04:31.035Z,97075.03
2019-01-14T07:07:39.925Z,97075.03
2019-01-14T07:13:20.601Z,97099.58
2019-01-14T07:15:51.310Z,97105.64
2019-01-14T07:18:39.779Z,97110.89
2019-01-14T07:24:10.874Z,97123.42
2019-01-14T07:26:40.608Z,97135.80
2019-01-14T07:29:49.548Z,97140.61
2019-01-14T07:32:19.444Z,97138.13
2019-01-14T07:34:48.856Z,97140.25
2019-01-14T07:40:15.543Z,97139.15
2019-01-14T07:48:48.880Z,97158.95
2019-01-14T07:51:30.452Z,97169.52
2019-01-14T07:54:00.212Z,97169.52
2019-01-14T07:56:30.317Z,97170.48
2019-01-14T07:59:18.768Z,97187.30
2019-01-14T08:04:42.956Z,97191.53
2019-01-14T08:07:31.466Z,97201.59
2019-01-14T08:10:01.012Z,97201.59
2019-01-14T08:12:41.704Z,97212.58
2019-01-14T08:15:51.579Z,97212.58
2019-01-14T08:18:21.204Z,97220.70
2019-01-14T08:20:51.732Z,97223.09
2019-01-14T08:23:21.923Z,97225.30
2019-01-14T08:26:30.880Z,97230.72
2019-01-14T08:29:01.181Z,97238.07
2019-01-14T08:31:30.621Z,97256.08
2019-01-14T08:34:00.901Z,97256.08
2019-01-14T08:36:30.507Z,97255.63
2019-01-14T08:39:00.571Z,97263.04
2019-01-14T08:47:35.472Z,97280.95
2019-01-14T08:50:44.240Z,97291.50
2019-01-14T08:53:53.896Z,97294.81
2019-01-14T08:56:24.016Z,97294.72
2019-01-14T08:59:32.771Z,97292.70
2019-01-14T09:02:14.493Z,97309.77
2019-01-14T09:04:55.698Z,97306.77
2019-01-14T09:07:25.404Z,97306.77
2019-01-14T09:12:52.075Z,97318.53
2019-01-14T09:15:22.270Z,97327.27
2019-01-14T09:17:52.180Z,97327.27
2019-01-14T09:21:01.894Z,97338.91
2019-01-14T09:26:52.672Z,97345.19
2019-01-14T09:29:23.826Z,97355.73
2019-01-14T09:32:14.504Z,97355.73
2019-01-14T09:34:44.024Z,97353.28
2019-01-14T09:37:52.991Z,97359.59
2019-01-14T09:40:41.615Z,97366.22
2019-01-14T09:43:50.425Z,97366.22
2019-01-14T09:46:21.549Z,97369.70
2019-01-14T09:49:30.568Z,97376.45
2019-01-14T09:52:11.932Z,97375.03
2019-01-14T09:55:20.629Z,97389.11
2019-01-14T10:04:05.446Z,97412.11
2019-01-14T10:06:46.363Z,97413.58
2019-01-14T10:09:55.489Z,97413.58
2019-01-14T10:18:08.628Z,97422.78
2019-01-14T10:20:38.693Z,97438.02
2019-01-14T10:23:27.462Z,97435.65
2019-01-14T10:26:16.347Z,97435.65
2019-01-14T10:29:25.259Z,97450.97
2019-01-14T10:37:50.878Z,97454.83
2019-01-14T10:40:20.433Z,97457.86
2019-01-14T10:43:29.245Z,97460.89
2019-01-14T10:49:19.983Z,97485.00
2019-01-14T10:52:01.765Z,97477.08
2019-01-14T10:54:31.273Z,97477.08
2019-01-14T11:00:18.705Z,97493.72
2019-01-14T11:02:48.715Z,97493.19
2019-01-14T11:05:58.872Z,97507.52
2019-01-14T11:08:40.429Z,97511.29
2019-01-14T11:11:50.133Z,97511.29
2019-01-14T11:14:31.837Z,97518.81
2019-01-14T11:17:13.202Z,97522.59
2019-01-14T11:19:56.371Z,97522.59
2019-01-14T11:23:05.414Z,97527.11
2019-01-14T11:25:54.418Z,97537.48
2019-01-14T11:28:35.920Z,97546.50
2019-01-14T11:34:10.911Z,97553.94
2019-01-14T11:37:20.125Z,97551.28
2019-01-14T11:40:08.813Z,97552.02
2019-01-14T11:42:57.664Z,97566.25
2019-01-14T11:46:06.474Z,97566.25
2019-01-14T11:48:36.322Z,97571.78
2019-01-14T11:54:21.655Z,97586.13
2019-01-14T12:03:08.669Z,97589.50
2019-01-14T12:06:18.710Z,97598.06
2019-01-14T12:09:27.811Z,97600.47
2019-01-14T12:11:58.647Z,97613.44
2019-01-14T12:15:07.414Z,97618.88
2019-01-14T12:17:37.439Z,97627.52
2019-01-14T12:20:17.549Z,97630.17
2019-01-14T12:22:59.162Z,97639.46
2019-01-14T12:26:07.884Z,97639.46
2019-01-14T12:31:51.954Z,97642.02
2019-01-14T12:35:01.926Z,97640.84
2019-01-14T12:38:10.736Z,97644.91
2019-01-14T12:40:40.300Z,97654.19
2019-01-14T12:46:05.583Z,97669.95
2019-01-14T12:49:16.858Z,97673.91
2019-01-14T12:57:55.867Z,97683.27
2019-01-14T13:03:10.200Z,97684.16
2019-01-14T13:06:19.101Z,97703.84
2019-01-14T13:09:28.470Z,97699.86
2019-01-14T13:11:58.421Z,97720.36
2019-01-14T13:14:27.890Z,97724.86
2019-01-14T13:19:54.063Z,97741.86
2019-01-14T13:25:16.053Z,97753.72
2019-01-14T13:28:24.940Z,97753.72
2019-01-14T13:30:55.027Z,97760.45
2019-01-14T13:45:44.029Z,97784.20
2019-01-14T13:51:22.474Z,97810.39
2019-01-14T13:57:18.064Z,97808.31
2019-01-14T14:00:08.638Z,97839.61
2019-01-14T14:02:38.734Z,97839.61
2019-01-14T14:05:08.821Z,97841.16
2019-01-14T14:08:17.710Z,97851.00
2019-01-14T14:10:47.358Z,97851.98
2019-01-14T14:13:56.250Z,97853.35
2019-01-14T14:16:25.940Z,97860.50
2019-01-14T14:19:14.796Z,97880.33
2019-01-14T14:22:03.758Z,97889.48
2019-01-14T14:24:53.588Z,97889.48
2019-01-14T14:27:23.095Z,97892.97
2019-01-14T14:29:52.859Z,97892.97
2019-01-14T14:33:02.592Z,97895.16
2019-01-14T14:35:32.803Z,97902.55
2019-01-14T14:38:04.053Z,97902.55
2019-01-14T14:43:48.921Z,97923.17
2019-01-14T14:46:18.420Z,97926.05
2019-01-14T14:49:07.626Z,97930.43
2019-01-14T14:51:38.873Z,97933.41
2019-01-14T14:54:09.042Z,97933.41
2019-01-14T14:56:38.599Z,97944.97
2019-01-14T14:59:08.048Z,97946.70
2019-01-14T15:01:37.740Z,97946.70
2019-01-14T15:04:26.827Z,97955.59
2019-01-14T15:10:08.854Z,97964.06
2019-01-14T15:15:46.268Z,97986.33
2019-01-14T15:18:15.889Z,97986.33
2019-01-14T15:21:24.793Z,97980.55
2019-01-14T15:27:20.788Z,98005.97
2019-01-14T15:30:02.310Z,98021.72
2019-01-14T15:32:43.717Z,98021.72
2019-01-14T15:35:13.531Z,98019.60
2019-01-14T15:37:43.868Z,98025.97
2019-01-14T15:40:14.351Z,98033.92
2019-01-14T15:43:03.854Z,98044.56
2019-01-14T15:45:45.515Z,98041.92
2019-01-14T15:48:26.477Z,98070.78
2019-01-14T15:51:08.289Z,98058.27
2019-01-14T15:53:38.333Z,98073.50
2019-01-14T15:59:04.783Z,98090.73
2019-01-14T16:07:49.469Z,98100.83
2019-01-14T16:16:15.930Z,98123.80
2019-01-14T16:18:46.889Z,98123.80
2019-01-14T16:24:41.641Z,98139.69
2019-01-14T16:33:42.812Z,98152.18
2019-01-14T16:36:12.754Z,98152.18
2019-01-14T16:41:39.640Z,98170.13
2019-01-14T16:44:29.518Z,98176.30
2019-01-14T16:46:58.940Z,98176.30
2019-01-14T16:49:28.521Z,98186.02
2019-01-14T16:51:58.413Z,98187.81
2019-01-14T16:54:28.120Z,98188.71
2019-01-14T16:57:37.100Z,98188.71
2019-01-14T17:00:46.890Z,98206.33
2019-01-14T17:06:37.844Z,98205.50
2019-01-14T17:15:45.225Z,98239.80
2019-01-14T17:18:54.227Z,98244.56
2019-01-14T17:21:43.608Z,98246.72
2019-01-14T17:24:24.360Z,98260.67
2019-01-14T17:27:05.736Z,98266.20
2019-01-14T17:30:15.210Z,98266.20
2019-01-14T17:36:05.829Z,98270.90
2019-01-14T17:38:47.146Z,98283.83
2019-01-14T17:41:16.757Z,98283.83
2019-01-14T17:47:01.925Z,98290.48
2019-01-14T17:50:11.381Z,98291.67
2019-01-14T17:52:52.588Z,98309.84
2019-01-14T17:55:23.073Z,98309.84
2019-01-14T17:58:11.912Z,98319.39
2019-01-14T18:01:01.682Z,98322.70
2019-01-14T18:03:31.244Z,98322.70
2019-01-14T18:09:05.246Z,98341.55
2019-01-14T18:11:47.323Z,98343.38
2019-01-14T18:14:29.369Z,98354.16
2019-01-14T18:17:10.570Z,98360.72
2019-01-14T18:20:19.637Z,98360.72
2019-01-14T18:22:49.789Z,98372.36
2019-01-14T18:25:19.411Z,98369.23
2019-01-14T18:27:49.117Z,98369.23
2019-01-14T18:30:23.510Z,98377.78
2019-01-14T18:33:03.057Z,98376.50
2019-01-14T18:38:53.615Z,98396.80
2019-01-14T18:47:27.073Z,98406.58
2019-01-14T18:49:56.533Z,98414.69
2019-01-14T18:52:26.048Z,98418.16
2019-01-14T18:54:55.946Z,98421.18
2019-01-14T18:57:25.586Z,98435.21
2019-01-14T18:59:55.638Z,98435.21
2019-01-14T19:02:25.385Z,98435.27
2019-01-14T19:04:55.703Z,98437.84
2019-01-14T19:07:25.307Z,98444.52
2019-01-14T19:09:55.775Z,98451.22
2019-01-14T19:12:25.616Z,98465.28
2019-01-14T19:14:56.060Z,98465.28
2019-01-14T19:20:24.016Z,98471.23
2019-01-14T19:23:13.187Z,98480.98
2019-01-14T19:25:54.130Z,98487.03
2019-01-14T19:28:23.790Z,98489.48
2019-01-14T19:30:53.545Z,98489.48
2019-01-14T19:33:23.359Z,98511.30
2019-01-14T19:35:53.180Z,98492.89
2019-01-14T19:38:22.885Z,98504.66
2019-01-14T19:40:53.591Z,98504.66
2019-01-14T19:43:23.582Z,98514.95
2019-01-14T19:45:53.079Z,98526.86
2019-01-14T19:48:22.931Z,98521.72
2019-01-14T19:50:53.298Z,98521.72
2019-01-14T19:53:23.917Z,98521.72
2019-01-14T19:55:53.452Z,98531.23
2019-01-14T19:58:22.875Z,98546.28
2019-01-14T20:00:52.404Z,98546.28
2019-01-14T20:03:22.047Z,98544.37
2019-01-14T20:05:51.897Z,98554.13
2019-01-14T20:08:23.208Z,98554.91
2019-01-14T20:11:31.996Z,98567.05
2019-01-14T20:14:21.378Z,98568.50
2019-01-14T20:20:18.622Z,98575.29
2019-01-14T20:23:07.497Z,98579.30
2019-01-14T20:25:37.109Z,98579.30
2019-01-14T20:28:07.141Z,98587.41
2019-01-14T20:30:36.635Z,98585.41
2019-01-14T20:33:06.363Z,98585.41
2019-01-14T20:35:35.799Z,98597.50
2019-01-14T20:38:05.443Z,98597.50
2019-01-14T20:40:35.803Z,98603.09
2019-01-14T20:43:05.547Z,98610.82
2019-01-14T20:45:35.448Z,98618.20
2019-01-14T20:48:05.285Z,98618.20
2019-01-14T20:50:34.917Z,98618.94
2019-01-14T20:53:04.613Z,98619.18
2019-01-14T20:55:34.186Z,98619.18
2019-01-14T20:58:03.807Z,98623.38
2019-01-14T21:00:33.460Z,98622.53
2019-01-14T21:03:02.992Z,98626.73
2019-01-14T21:05:33.429Z,98622.92
2019-01-14T21:08:02.920Z,98643.52
2019-01-14T21:10:32.559Z,98643.52
2019-01-14T21:13:21.951Z,98644.22
2019-01-14T21:15:51.524Z,98644.22
2019-01-14T21:19:03.074Z,98649.13
2019-01-14T21:21:32.476Z,98649.13
2019-01-14T21:24:02.621Z,98654.16
2019-01-14T21:29:28.444Z,98666.83
2019-01-14T21:31:58.042Z,98666.05
2019-01-14T21:34:27.448Z,98660.50
2019-01-14T21:36:56.857Z,98675.31
2019-01-14T21:39:26.926Z,98670.05
2019-01-14T21:41:56.416Z,98670.05
2019-01-14T21:44:26.174Z,98684.71
2019-01-14T21:46:55.788Z,98682.53
2019-01-14T21:49:26.008Z,98682.53
2019-01-14T21:51:56.029Z,98678.61
2019-01-14T21:54:25.518Z,98686.25
2019-01-14T21:56:54.942Z,98693.36
2019-01-14T21:59:24.548Z,98693.36
2019-01-14T22:01:53.955Z,98695.88
2019-01-14T22:04:23.796Z,98697.66
2019-01-14T22:06:53.172Z,98699.41
2019-01-14T22:09:22.680Z,98699.41
2019-01-14T22:11:52.370Z,98705.65
2019-01-14T22:14:22.932Z,98705.50
2019-01-14T22:16:52.390Z,98697.08
2019-01-14T22:19:21.953Z,98697.08
2019-01-14T22:21:51.564Z,98715.02
2019-01-14T22:24:21.097Z,98710.85
2019-01-14T22:26:51.492Z,98703.58
2019-01-14T22:29:21.553Z,98714.77
2019-01-14T22:31:51.083Z,98720.64
2019-01-14T22:37:18.598Z,98722.38
2019-01-14T22:39:48.603Z,98730.72
2019-01-14T22:42:18.009Z,98740.81
2019-01-14T22:44:47.600Z,98739.59
2019-01-14T22:47:17.031Z,98755.81
2019-01-14T22:49:46.765Z,98755.81
2019-01-14T22:52:16.527Z,98753.69
2019-01-14T22:54:46.044Z,98756.61
2019-01-14T22:57:17.552Z,98762.60
2019-01-14T23:03:24.598Z,98773.73
2019-01-14T23:12:16.899Z,98778.23
2019-01-14T23:14:57.489Z,98783.78
2019-01-14T23:17:38.291Z,98783.78
2019-01-14T23:23:29.086Z,98787.05
2019-01-14T23:26:09.927Z,98796.64
2019-01-14T23:29:18.954Z,98796.64
2019-01-14T23:35:02.767Z,98796.05
2019-01-14T23:40:32.993Z,98802.08
2019-01-14T23:43:02.697Z,98795.05
2019-01-14T23:54:24.293Z,98819.05
2019-01-14T23:57:13.416Z,98831.22
